Time;durP1;ratioP1;P1;durP2;ratioP2;P2;SDS_P1;SDS_P2;PMS_P1;PMS_P2;Temp;Humidity;BMP_temperature;BMP_pressure;BME280_temperature;BME280_humidity;BME280_pressure;Samples;Min_cycle;Max_cycle;Signal;HPM_P1;HPM_P2
2023/07/29 00:00:07;;;;;;;6.15;5.35;;;18.40;99.90;;;;;;5083958;28;20196;-70
2023/07/29 00:02:33;;;;;;;5.85;5.18;;;18.40;99.90;;;;;;5096445;28;20210;-70
2023/07/29 00:05:00;;;;;;;6.55;5.32;;;18.00;99.90;;;;;;5092841;28;20204;-69
2023/07/29 00:07:27;;;;;;;8.40;5.03;;;18.40;99.90;;;;;;5089315;28;20227;-69
2023/07/29 00:09:54;;;;;;;5.80;5.20;;;18.30;99.90;;;;;;5072274;28;20211;-69
2023/07/29 00:12:21;;;;;;;6.18;5.30;;;18.30;99.90;;;;;;5094986;27;20204;-69
2023/07/29 00:14:49;;;;;;;6.43;5.03;;;18.40;99.90;;;;;;5093010;28;20769;-69
2023/07/29 00:17:15;;;;;;;7.50;5.82;;;18.30;99.90;;;;;;5095257;28;20191;-69
2023/07/29 00:19:42;;;;;;;5.95;5.35;;;18.40;99.90;;;;;;5095091;28;20210;-70
2023/07/29 00:22:09;;;;;;;7.97;5.00;;;18.40;99.90;;;;;;5086320;28;20195;-69
2023/07/29 00:24:36;;;;;;;5.60;4.47;;;18.40;99.90;;;;;;5076358;28;20596;-70
2023/07/29 00:27:03;;;;;;;6.00;5.15;;;18.50;99.90;;;;;;5089782;28;20679;-69
2023/07/29 00:29:29;;;;;;;12.68;5.28;;;18.50;99.90;;;;;;5083248;28;20823;-70
2023/07/29 00:31:57;;;;;;;9.25;5.30;;;18.40;99.90;;;;;;5096279;28;20203;-70
2023/07/29 00:34:24;;;;;;;7.68;5.45;;;18.40;99.90;;;;;;5095451;28;20191;-70
2023/07/29 00:36:52;;;;;;;5.90;4.78;;;18.30;99.90;;;;;;5095227;28;21601;-70
2023/07/29 00:39:19;;;;;;;6.80;5.13;;;18.20;99.90;;;;;;5067689;28;21005;-70
2023/07/29 00:41:46;;;;;;;8.73;5.13;;;18.40;99.90;;;;;;5095836;28;20200;-69
2023/07/29 00:44:12;;;;;;;9.80;5.20;;;18.40;99.90;;;;;;5085298;27;20204;-70
2023/07/29 00:46:40;;;;;;;6.18;5.22;;;18.30;99.90;;;;;;5090616;28;20220;-69
2023/07/29 00:49:09;;;;;;;6.78;5.75;;;18.30;99.90;;;;;;5089356;28;20966;-70
2023/07/29 00:51:36;;;;;;;8.80;5.70;;;18.40;99.90;;;;;;5094630;28;20215;-69
2023/07/29 00:54:03;;;;;;;9.13;5.63;;;18.30;99.90;;;;;;5067377;28;20227;-70
2023/07/29 00:56:30;;;;;;;8.20;5.75;;;18.30;99.90;;;;;;5094976;28;20214;-70
2023/07/29 00:59:01;;;;;;;9.52;5.43;;;18.30;99.90;;;;;;5090032;28;20202;-70
2023/07/29 01:01:28;;;;;;;16.02;5.78;;;18.30;99.90;;;;;;5091345;28;20208;-70
2023/07/29 01:03:55;;;;;;;5.55;4.90;;;18.20;99.90;;;;;;5093267;28;20229;-70
2023/07/29 01:06:30;;;;;;;7.78;5.45;;;18.10;99.90;;;;;;5094459;28;20651;-70
2023/07/29 01:09:02;;;;;;;8.15;5.90;;;18.10;99.90;;;;;;5086831;28;20203;-70
2023/07/29 01:11:39;;;;;;;6.90;5.55;;;18.10;99.90;;;;;;5076021;28;20964;-70
2023/07/29 01:14:14;;;;;;;8.20;5.13;;;18.20;99.90;;;;;;5085605;28;20195;-70
2023/07/29 01:16:42;;;;;;;8.23;5.90;;;18.10;99.90;;;;;;5095640;28;20209;-69
2023/07/29 01:19:21;;;;;;;7.65;4.60;;;18.10;99.90;;;;;;5090717;28;20195;-70
2023/07/29 01:21:49;;;;;;;8.65;5.82;;;18.10;99.90;;;;;;5093545;28;20676;-69
2023/07/29 01:24:17;;;;;;;10.07;5.47;;;18.10;99.90;;;;;;5087993;28;20585;-70
2023/07/29 01:26:44;;;;;;;8.45;6.47;;;18.10;99.90;;;;;;5075559;28;20338;-70
2023/07/29 01:29:11;;;;;;;7.68;6.68;;;18.20;99.90;;;;;;5082719;28;20227;-70
2023/07/29 01:31:43;;;;;;;9.35;6.82;;;18.20;99.90;;;;;;5091224;28;20200;-70
2023/07/29 01:34:16;;;;;;;11.98;6.90;;;18.20;99.90;;;;;;5092088;28;20195;-70
2023/07/29 01:36:44;;;;;;;8.75;6.85;;;18.20;99.90;;;;;;5092423;28;20195;-70
2023/07/29 01:39:13;;;;;;;11.77;7.35;;;18.20;99.90;;;;;;5083683;28;20256;-69
2023/07/29 01:41:42;;;;;;;13.50;6.82;;;18.20;99.90;;;;;;5094319;28;20214;-69
2023/07/29 01:44:09;;;;;;;9.00;6.90;;;18.20;99.90;;;;;;5072035;28;20318;-70
2023/07/29 01:46:37;;;;;;;15.75;7.55;;;18.20;99.90;;;;;;5086460;28;20204;-69
2023/07/29 01:49:04;;;;;;;11.50;7.32;;;18.10;99.90;;;;;;5088877;28;20196;-70
2023/07/29 01:51:31;;;;;;;28.45;8.50;;;18.10;99.90;;;;;;5094542;28;20690;-69
2023/07/29 01:53:59;;;;;;;20.67;8.43;;;;;;;;;;5090725;28;20230;-69
2023/07/29 01:56:26;;;;;;;11.45;7.50;;;18.10;99.90;;;;;;5091120;28;20349;-70
2023/07/29 01:58:54;;;;;;;10.25;8.30;;;18.10;99.90;;;;;;5071245;28;20581;-69
2023/07/29 02:01:21;;;;;;;14.20;8.57;;;19.00;99.90;;;;;;5087394;28;20216;-70
2023/07/29 02:03:53;;;;;;;15.95;9.45;;;18.10;99.90;;;;;;5092571;28;20594;-70
2023/07/29 02:06:20;;;;;;;17.40;9.25;;;18.00;99.90;;;;;;5091123;28;20208;-70
2023/07/29 02:08:46;;;;;;;12.88;8.30;;;17.90;99.90;;;;;;5092348;28;20234;-69
2023/07/29 02:11:13;;;;;;;12.95;8.80;;;17.90;99.90;;;;;;5084989;28;20878;-69
2023/07/29 02:13:40;;;;;;;10.38;8.02;;;17.90;99.90;;;;;;5076540;28;20208;-69
2023/07/29 02:16:08;;;;;;;12.00;9.30;;;17.90;99.90;;;;;;5089773;28;20201;-70
2023/07/29 02:18:35;;;;;;;12.38;8.60;;;17.80;99.90;;;;;;5087961;28;20203;-69
2023/07/29 02:21:02;;;;;;;13.27;8.98;;;17.80;99.90;;;;;;5091194;28;20195;-74
2023/07/29 02:23:29;;;;;;;11.82;8.52;;;17.80;99.90;;;;;;5094159;28;20553;-70
2023/07/29 02:25:56;;;;;;;17.38;9.40;;;17.70;99.90;;;;;;5083184;28;20205;-69
2023/07/29 02:28:23;;;;;;;14.05;8.05;;;17.70;99.90;;;;;;5093544;28;20239;-69
2023/07/29 02:31:13;;;;;;;11.48;8.52;;;17.70;99.90;;;;;;5076294;28;20204;-70
2023/07/29 02:33:40;;;;;;;14.95;9.05;;;17.70;99.90;;;;;;5087049;28;20201;-71
2023/07/29 02:36:06;;;;;;;15.90;7.97;;;17.40;99.90;;;;;;5093575;28;20225;-70
2023/07/29 02:38:33;;;;;;;12.15;7.85;;;17.60;99.90;;;;;;5094334;28;20203;-69
2023/07/29 02:41:00;;;;;;;11.70;8.00;;;17.50;99.90;;;;;;5089901;28;20282;-70
2023/07/29 02:43:27;;;;;;;10.90;7.53;;;17.60;99.90;;;;;;5090922;28;20664;-69
2023/07/29 02:45:54;;;;;;;11.43;7.55;;;17.70;99.90;;;;;;5076007;28;20208;-70
2023/07/29 02:48:22;;;;;;;8.90;7.00;;;17.40;99.90;;;;;;5082770;28;20232;-69
2023/07/29 02:50:49;;;;;;;16.83;7.47;;;17.60;99.90;;;;;;5093190;28;20200;-72
2023/07/29 02:53:15;;;;;;;12.27;7.13;;;17.40;99.90;;;;;;5091735;28;20199;-70
2023/07/29 02:55:42;;;;;;;10.13;7.03;;;17.40;99.90;;;;;;5093980;28;20675;-70
2023/07/29 02:58:09;;;;;;;9.02;7.30;;;17.70;99.90;;;;;;5084310;28;20314;-70
2023/07/29 03:00:36;;;;;;;10.25;7.10;;;17.50;99.90;;;;;;5070270;28;20209;-69
2023/07/29 03:03:03;;;;;;;7.82;6.85;;;17.40;99.90;;;;;;5083303;28;20672;-70
2023/07/29 03:05:31;;;;;;;9.60;7.57;;;17.30;99.90;;;;;;5088016;28;20220;-70
2023/07/29 03:07:59;;;;;;;13.98;7.00;;;17.30;99.90;;;;;;5090415;28;20227;-70
2023/07/29 03:10:26;;;;;;;15.75;7.20;;;17.40;99.90;;;;;;5095649;28;20210;-70
2023/07/29 03:12:55;;;;;;;15.85;7.10;;;17.30;99.90;;;;;;5088911;28;20213;-69
2023/07/29 03:15:24;;;;;;;7.95;6.57;;;17.30;99.90;;;;;;5076695;28;20214;-70
2023/07/29 03:17:51;;;;;;;8.32;7.38;;;17.20;99.90;;;;;;5096668;28;20264;-70
2023/07/29 03:20:18;;;;;;;8.70;6.75;;;17.20;99.90;;;;;;5087808;28;20581;-70
2023/07/29 03:22:47;;;;;;;7.35;6.50;;;17.20;99.90;;;;;;5098031;28;20225;-70
2023/07/29 03:25:14;;;;;;;7.60;6.75;;;17.30;99.90;;;;;;5092860;28;20702;-70
2023/07/29 03:27:41;;;;;;;7.78;6.63;;;17.30;99.90;;;;;;5090720;28;20223;-69
2023/07/29 03:30:08;;;;;;;11.05;6.68;;;17.20;99.90;;;;;;5075954;28;20696;-70
2023/07/29 03:32:35;;;;;;;8.95;6.93;;;17.30;99.90;;;;;;5094067;28;20192;-69
2023/07/29 03:35:02;;;;;;;7.38;6.50;;;17.40;99.90;;;;;;5092330;28;20284;-70
2023/07/29 03:37:28;;;;;;;8.60;7.57;;;17.40;99.90;;;;;;5095130;28;20966;-69
2023/07/29 03:39:56;;;;;;;8.48;6.82;;;17.50;99.90;;;;;;5094788;28;20199;-70
2023/07/29 03:42:23;;;;;;;10.88;7.15;;;17.50;99.90;;;;;;5087146;28;20567;-70
2023/07/29 03:44:50;;;;;;;10.02;7.65;;;17.50;99.90;;;;;;5090753;28;20199;-70
2023/07/29 03:47:17;;;;;;;9.88;7.50;;;17.50;99.90;;;;;;5077792;28;20661;-69
2023/07/29 03:49:44;;;;;;;8.98;6.85;;;17.50;99.90;;;;;;5095365;28;20760;-70
2023/07/29 03:52:11;;;;;;;8.40;6.97;;;17.70;99.90;;;;;;5086791;28;20316;-69
2023/07/29 03:54:37;;;;;;;14.80;7.10;;;17.50;99.90;;;;;;5096314;28;20270;-69
2023/07/29 03:57:06;;;;;;;11.23;7.03;;;17.50;99.90;;;;;;5091498;28;20192;-70
2023/07/29 03:59:33;;;;;;;16.48;7.13;;;17.50;99.90;;;;;;5091378;27;20425;-70
2023/07/29 04:02:00;;;;;;;10.38;7.95;;;17.50;99.90;;;;;;5072998;28;20703;-69
2023/07/29 04:04:27;;;;;;;10.00;7.95;;;17.60;99.90;;;;;;5096543;28;20220;-71
2023/07/29 04:06:54;;;;;;;15.35;8.25;;;;;;;;;;5088634;28;20207;-70
2023/07/29 04:09:21;;;;;;;10.30;8.32;;;17.60;99.90;;;;;;5093441;28;20242;-70
2023/07/29 04:11:48;;;;;;;15.43;8.90;;;17.60;99.90;;;;;;5095214;28;20918;-70
2023/07/29 04:14:16;;;;;;;11.73;8.85;;;17.60;99.90;;;;;;5082145;28;20213;-70
2023/07/29 04:16:43;;;;;;;11.82;8.98;;;17.70;99.90;;;;;;5094797;28;20199;-70
2023/07/29 04:19:10;;;;;;;15.23;8.85;;;17.80;99.90;;;;;;5074770;28;20245;-69
2023/07/29 04:21:37;;;;;;;8.80;7.72;;;17.80;99.90;;;;;;5089544;28;20207;-71
2023/07/29 04:24:04;;;;;;;13.10;8.73;;;17.80;99.90;;;;;;5084062;28;20301;-70
2023/07/29 04:26:30;;;;;;;11.80;8.63;;;17.70;99.90;;;;;;5095316;28;20203;-70
2023/07/29 04:28:58;;;;;;;12.63;8.07;;;17.70;99.90;;;;;;5094178;28;20231;-71
2023/07/29 04:31:26;;;;;;;14.30;9.15;;;17.80;99.90;;;;;;5086286;28;20200;-69
2023/07/29 04:33:53;;;;;;;10.27;8.65;;;17.80;99.90;;;;;;5077497;28;20233;-70
2023/07/29 04:36:20;;;;;;;10.35;8.20;;;17.90;99.90;;;;;;5089243;28;20200;-69
2023/07/29 04:38:46;;;;;;;12.25;9.32;;;17.90;99.90;;;;;;5083752;28;20204;-71
2023/07/29 04:41:13;;;;;;;11.50;9.05;;;17.90;99.90;;;;;;5094315;27;20199;-70
2023/07/29 04:43:40;;;;;;;10.85;8.75;;;18.00;99.90;;;;;;5094558;28;20202;-70
2023/07/29 04:46:08;;;;;;;12.95;9.10;;;18.00;99.90;;;;;;5086195;28;20978;-70
2023/07/29 04:48:36;;;;;;;11.98;9.55;;;17.90;99.90;;;;;;5074117;28;20250;-70
2023/07/29 04:51:04;;;;;;;13.73;8.70;;;;;;;;;;5089077;28;20196;-70
2023/07/29 04:53:30;;;;;;;16.55;8.93;;;18.00;99.90;;;;;;5084075;28;20206;-69
2023/07/29 04:55:57;;;;;;;15.32;9.57;;;18.10;99.90;;;;;;5091601;28;20571;-70
2023/07/29 04:58:24;;;;;;;14.35;9.63;;;18.10;99.90;;;;;;5089288;28;20204;-70
2023/07/29 05:00:51;;;;;;;12.73;9.05;;;18.00;99.90;;;;;;5092010;28;20211;-70
2023/07/29 05:03:18;;;;;;;16.75;10.63;;;18.10;99.90;;;;;;5064263;28;20212;-70
2023/07/29 05:05:46;;;;;;;12.98;9.88;;;18.10;99.90;;;;;;5094599;28;20207;-69
2023/07/29 05:08:12;;;;;;;11.95;10.43;;;18.20;99.90;;;;;;5081500;28;20866;-69
2023/07/29 05:10:39;;;;;;;13.52;9.52;;;18.20;99.90;;;;;;5093909;28;20224;-70
2023/07/29 05:13:06;;;;;;;16.15;10.18;;;18.10;99.90;;;;;;5090278;28;20461;-70
2023/07/29 05:15:33;;;;;;;15.50;9.77;;;18.10;99.90;;;;;;5094058;27;20200;-70
2023/07/29 05:17:59;;;;;;;14.95;9.73;;;18.20;99.90;;;;;;5083547;28;20218;-70
2023/07/29 05:20:26;;;;;;;11.75;9.63;;;18.10;99.90;;;;;;5071359;28;20257;-70
2023/07/29 05:22:55;;;;;;;10.90;9.77;;;18.20;99.90;;;;;;5090158;28;20204;-70
2023/07/29 05:25:21;;;;;;;12.55;9.40;;;18.20;99.90;;;;;;5091775;28;20200;-70
2023/07/29 05:27:48;;;;;;;12.32;9.65;;;18.40;99.90;;;;;;5088583;28;20195;-71
2023/07/29 05:30:15;;;;;;;12.85;9.40;;;18.40;99.90;;;;;;5090080;28;20192;-70
2023/07/29 05:32:41;;;;;;;13.02;10.35;;;18.40;99.90;;;;;;5084482;28;20204;-70
2023/07/29 05:35:08;;;;;;;13.32;9.48;;;18.50;99.90;;;;;;5070834;27;20253;-70
2023/07/29 05:37:35;;;;;;;14.50;9.82;;;18.40;99.90;;;;;;5094852;28;20199;-70
2023/07/29 05:40:04;;;;;;;14.90;10.18;;;18.40;99.90;;;;;;5084592;28;20191;-70
2023/07/29 05:42:30;;;;;;;12.73;10.15;;;18.50;99.90;;;;;;5092688;28;20191;-70
2023/07/29 05:44:58;;;;;;;17.15;9.52;;;;;;;;;;5088843;28;20675;-70
2023/07/29 05:47:24;;;;;;;17.00;10.38;;;18.50;99.90;;;;;;5087427;28;20200;-70
2023/07/29 05:49:51;;;;;;;11.18;9.73;;;18.50;99.90;;;;;;5084056;28;20231;-70
2023/07/29 05:52:18;;;;;;;18.33;10.02;;;18.60;99.90;;;;;;5078383;28;20195;-70
2023/07/29 05:54:45;;;;;;;16.08;10.63;;;18.40;99.90;;;;;;5092919;28;20197;-70
2023/07/29 05:57:13;;;;;;;16.65;10.45;;;18.60;99.90;;;;;;5078725;28;20206;-70
2023/07/29 05:59:40;;;;;;;14.95;11.05;;;18.60;99.90;;;;;;5094129;28;20198;-70
2023/07/29 06:02:07;;;;;;;12.25;9.63;;;18.60;99.90;;;;;;5082586;28;20191;-70
2023/07/29 06:04:34;;;;;;;18.52;10.35;;;18.60;99.90;;;;;;5091004;28;20204;-70
2023/07/29 06:07:01;;;;;;;14.15;11.07;;;18.60;99.90;;;;;;5069680;28;20776;-70
2023/07/29 06:09:27;;;;;;;13.30;10.15;;;18.50;99.90;;;;;;5091460;28;20236;-70
2023/07/29 06:11:54;;;;;;;14.27;10.32;;;18.60;99.90;;;;;;5083610;28;20703;-70
2023/07/29 06:14:22;;;;;;;14.75;10.13;;;18.60;99.90;;;;;;5090330;28;20657;-70
2023/07/29 06:16:49;;;;;;;15.52;10.23;;;18.70;99.90;;;;;;5091752;28;20206;-71
2023/07/29 06:19:16;;;;;;;14.88;10.35;;;18.70;99.90;;;;;;5083524;28;20209;-70
2023/07/29 06:21:43;;;;;;;16.88;10.48;;;18.70;99.90;;;;;;5091025;28;20203;-70
2023/07/29 06:24:10;;;;;;;12.20;9.10;;;18.70;99.90;;;;;;5069666;28;21080;-70
2023/07/29 06:26:36;;;;;;;13.10;10.32;;;18.70;99.90;;;;;;5084892;28;20290;-70
2023/07/29 06:29:03;;;;;;;13.93;10.10;;;18.70;99.90;;;;;;5088653;28;20231;-70
2023/07/29 06:31:32;;;;;;;11.98;9.70;;;18.80;99.90;;;;;;5094007;28;21604;-70
2023/07/29 06:33:59;;;;;;;15.27;10.15;;;18.90;99.90;;;;;;5083240;28;20657;-70
2023/07/29 06:36:26;;;;;;;14.50;10.07;;;18.90;99.90;;;;;;5077552;28;20229;-70
2023/07/29 06:38:52;;;;;;;16.70;9.60;;;18.90;99.90;;;;;;5071736;28;20211;-70
2023/07/29 06:41:19;;;;;;;11.55;9.43;;;18.90;99.90;;;;;;5077655;28;20931;-70
2023/07/29 06:43:46;;;;;;;12.05;8.98;;;19.00;99.90;;;;;;5073394;28;20219;-70
2023/07/29 06:46:13;;;;;;;14.57;9.65;;;19.00;99.90;;;;;;5088074;28;20227;-70
2023/07/29 06:48:41;;;;;;;12.07;9.20;;;18.90;99.90;;;;;;5088560;28;20223;-70
2023/07/29 06:51:08;;;;;;;14.63;8.60;;;18.90;99.90;;;;;;5087311;28;20226;-70
2023/07/29 06:53:35;;;;;;;12.57;8.60;;;20.30;99.90;;;;;;5074503;28;20222;-70
2023/07/29 06:56:02;;;;;;;15.38;9.45;;;18.90;99.90;;;;;;5095954;28;20219;-70
2023/07/29 06:58:29;;;;;;;12.32;8.82;;;18.70;99.90;;;;;;5082266;28;20230;-70
2023/07/29 07:00:56;;;;;;;11.65;8.88;;;19.00;99.90;;;;;;5092725;28;20265;-70
2023/07/29 07:03:23;;;;;;;9.50;8.18;;;18.90;99.90;;;;;;5093049;28;20226;-70
2023/07/29 07:05:54;;;;;;;11.35;8.27;;;18.90;99.90;;;;;;5094091;28;20195;-71
2023/07/29 07:08:20;;;;;;;10.57;7.25;;;18.90;99.90;;;;;;5096077;28;20484;-71
2023/07/29 07:10:48;;;;;;;10.95;7.47;;;19.00;99.90;;;;;;5073734;28;20229;-70
2023/07/29 07:13:14;;;;;;;10.88;8.43;;;19.10;99.90;;;;;;5088229;28;20243;-70
2023/07/29 07:15:41;;;;;;;9.73;7.75;;;19.00;99.90;;;;;;5089198;28;20288;-70
2023/07/29 07:18:09;;;;;;;9.48;6.90;;;19.10;99.90;;;;;;5090457;28;20231;-70
2023/07/29 07:20:36;;;;;;;10.00;6.80;;;19.00;99.90;;;;;;5094411;28;20219;-70
2023/07/29 07:23:08;;;;;;;10.00;6.80;;;19.10;99.90;;;;;;5094111;28;20200;-70
2023/07/29 07:25:35;;;;;;;8.95;6.50;;;19.10;99.90;;;;;;5070545;28;20256;-70
2023/07/29 07:28:02;;;;;;;7.65;6.05;;;19.10;99.90;;;;;;5090741;28;20227;-70
2023/07/29 07:30:29;;;;;;;7.93;6.15;;;19.10;99.90;;;;;;5083833;28;20253;-70
2023/07/29 07:32:55;;;;;;;12.85;6.85;;;19.00;99.90;;;;;;5094033;28;20305;-70
2023/07/29 07:35:22;;;;;;;9.23;6.60;;;19.20;99.90;;;;;;5089410;28;20630;-70
2023/07/29 07:37:49;;;;;;;11.00;6.10;;;19.00;99.90;;;;;;5094219;28;20215;-70
2023/07/29 07:40:17;;;;;;;7.43;5.90;;;19.00;99.90;;;;;;5086394;28;20200;-70
2023/07/29 07:42:44;;;;;;;7.68;5.43;;;18.90;99.90;;;;;;5086924;28;20215;-70
2023/07/29 07:45:11;;;;;;;7.50;5.57;;;;;;;;;;5092447;28;20222;-70
2023/07/29 07:47:38;;;;;;;7.68;5.55;;;18.90;99.90;;;;;;5089330;28;20199;-70
2023/07/29 07:50:05;;;;;;;7.22;5.30;;;19.00;99.90;;;;;;5079754;28;20227;-70
2023/07/29 07:52:32;;;;;;;11.35;5.60;;;19.00;99.90;;;;;;5092440;28;20183;-70
2023/07/29 07:54:59;;;;;;;9.27;6.07;;;19.00;99.90;;;;;;5093387;28;20842;-70
2023/07/29 07:57:27;;;;;;;7.93;5.72;;;19.10;99.90;;;;;;5074134;28;20214;-70
2023/07/29 07:59:54;;;;;;;5.68;5.07;;;19.10;99.90;;;;;;5095366;28;20973;-70
2023/07/29 08:02:21;;;;;;;6.43;5.60;;;19.10;99.90;;;;;;5094375;28;20535;-70
2023/07/29 08:04:48;;;;;;;7.00;4.97;;;19.00;99.90;;;;;;5087758;28;20207;-70
2023/07/29 08:07:14;;;;;;;6.55;4.78;;;19.00;99.90;;;;;;5096617;28;20629;-70
2023/07/29 08:09:41;;;;;;;9.48;5.38;;;19.10;99.90;;;;;;5091686;28;20225;-70
2023/07/29 08:12:08;;;;;;;6.97;4.85;;;19.10;99.90;;;;;;5073087;28;20204;-70
2023/07/29 08:14:36;;;;;;;8.70;5.32;;;19.20;99.90;;;;;;5093043;28;20565;-70
2023/07/29 08:17:03;;;;;;;5.03;4.50;;;19.10;99.90;;;;;;5098034;27;20199;-70
2023/07/29 08:19:30;;;;;;;7.80;5.13;;;19.20;99.90;;;;;;5083886;28;20203;-70
2023/07/29 08:21:58;;;;;;;7.32;4.32;;;;;;;;;;5092379;28;20191;-70
2023/07/29 08:24:25;;;;;;;7.40;4.80;;;19.20;99.90;;;;;;5091387;28;20232;-70
2023/07/29 08:26:52;;;;;;;6.63;4.10;;;19.10;99.90;;;;;;5070939;28;20234;-70
2023/07/29 08:29:18;;;;;;;6.05;4.25;;;19.20;99.90;;;;;;5092288;28;20235;-70
2023/07/29 08:31:46;;;;;;;4.88;4.15;;;19.20;99.90;;;;;;5089025;28;20212;-70
2023/07/29 08:34:13;;;;;;;4.60;3.80;;;19.20;99.90;;;;;;5091002;28;20290;-70
2023/07/29 08:36:40;;;;;;;10.95;4.03;;;19.20;99.90;;;;;;5087677;27;20203;-70
2023/07/29 08:39:07;;;;;;;11.75;4.63;;;19.20;99.90;;;;;;5093387;28;20211;-70
2023/07/29 08:41:39;;;;;;;9.52;4.10;;;19.20;99.90;;;;;;5091578;28;20320;-70
2023/07/29 08:44:10;;;;;;;8.00;4.18;;;19.20;99.90;;;;;;5077293;27;20270;-70
2023/07/29 08:46:37;;;;;;;6.85;4.18;;;19.20;99.90;;;;;;5084628;28;20310;-70
2023/07/29 08:49:06;;;;;;;4.45;3.70;;;19.20;99.90;;;;;;5093552;27;20227;-70
2023/07/29 08:51:34;;;;;;;6.30;3.38;;;19.20;99.90;;;;;;5090351;28;20320;-70
2023/07/29 08:54:02;;;;;;;3.55;3.25;;;19.20;99.90;;;;;;5087630;28;20759;-70
2023/07/29 08:56:30;;;;;;;4.88;3.65;;;19.30;99.90;;;;;;5096758;28;20202;-70
2023/07/29 08:58:57;;;;;;;5.20;3.13;;;19.30;99.90;;;;;;5069934;28;20348;-70
2023/07/29 09:01:24;;;;;;;6.15;3.17;;;19.40;99.90;;;;;;5096923;28;20250;-70
2023/07/29 09:03:51;;;;;;;4.75;3.13;;;19.30;99.90;;;;;;5082106;28;20231;-70
2023/07/29 09:06:20;;;;;;;5.15;3.30;;;19.30;99.90;;;;;;5087782;28;20207;-70
2023/07/29 09:08:49;;;;;;;3.33;3.00;;;19.30;99.90;;;;;;5090328;28;20196;-70
2023/07/29 09:11:17;;;;;;;4.93;2.65;;;19.40;99.90;;;;;;5094065;28;20203;-70
2023/07/29 09:13:44;;;;;;;4.22;3.10;;;19.40;99.90;;;;;;5072300;28;20219;-70
2023/07/29 09:16:10;;;;;;;3.22;2.80;;;19.40;99.90;;;;;;5092529;28;20751;-69
2023/07/29 09:18:37;;;;;;;3.67;3.00;;;19.40;99.90;;;;;;5085182;28;20196;-71
2023/07/29 09:21:04;;;;;;;4.68;3.20;;;19.40;99.90;;;;;;5093885;28;20214;-69
2023/07/29 09:23:41;;;;;;;7.97;3.58;;;19.50;99.90;;;;;;5087265;28;20196;-71
2023/07/29 09:26:08;;;;;;;4.63;3.78;;;19.50;99.90;;;;;;5095102;28;20711;-69
2023/07/29 09:28:36;;;;;;;4.32;3.30;;;19.70;99.90;;;;;;5067743;28;20237;-69
2023/07/29 09:31:04;;;;;;;5.80;3.75;;;19.70;99.90;;;;;;5092981;28;20227;-69
2023/07/29 09:33:35;;;;;;;5.60;3.38;;;19.80;99.90;;;;;;5084363;28;20207;-69
2023/07/29 09:36:02;;;;;;;5.95;3.33;;;19.80;99.90;;;;;;5095239;28;20198;-69
2023/07/29 09:38:29;;;;;;;4.72;3.70;;;19.90;99.90;;;;;;5086565;28;20200;-69
2023/07/29 09:40:58;;;;;;;4.95;3.58;;;19.90;99.90;;;;;;5091014;28;20206;-68
2023/07/29 09:43:29;;;;;;;6.95;3.35;;;19.90;99.90;;;;;;5078138;28;20216;-69
2023/07/29 09:45:56;;;;;;;4.90;3.95;;;20.00;99.90;;;;;;5090228;28;20208;-69
2023/07/29 09:48:24;;;;;;;6.75;4.30;;;20.00;99.90;;;;;;5081284;27;20215;-69
2023/07/29 09:50:50;;;;;;;6.68;3.90;;;20.00;99.90;;;;;;5089673;28;21942;-69
2023/07/29 09:53:18;;;;;;;6.75;3.40;;;20.10;99.90;;;;;;5092292;28;20188;-69
2023/07/29 09:55:47;;;;;;;3.97;3.45;;;20.10;99.90;;;;;;5092635;28;20195;-69
2023/07/29 09:58:19;;;;;;;4.47;3.38;;;20.20;99.90;;;;;;5091824;28;20200;-69
2023/07/29 10:00:46;;;;;;;5.28;3.08;;;20.40;99.90;;;;;;5077867;28;20209;-69
2023/07/29 10:03:15;;;;;;;5.55;3.22;;;20.40;99.90;;;;;;5086208;28;20204;-70
2023/07/29 10:05:42;;;;;;;5.38;3.05;;;20.60;99.90;;;;;;5081918;28;20199;-69
2023/07/29 10:08:10;;;;;;;5.00;3.30;;;20.70;99.90;;;;;;5093105;28;20667;-69
2023/07/29 10:10:37;;;;;;;3.47;3.17;;;20.90;99.90;;;;;;5092100;28;20223;-69
2023/07/29 10:13:05;;;;;;;2.40;2.20;;;20.80;99.90;;;;;;5091752;28;20235;-69
2023/07/29 10:15:34;;;;;;;2.58;2.38;;;20.80;99.90;;;;;;5068695;28;20203;-69
2023/07/29 10:18:03;;;;;;;3.30;2.30;;;20.80;99.90;;;;;;5087723;28;20204;-69
2023/07/29 10:20:32;;;;;;;7.45;2.50;;;20.80;99.90;;;;;;5088486;28;20199;-69
2023/07/29 10:23:01;;;;;;;3.00;2.38;;;20.90;99.90;;;;;;5082781;28;20326;-69
2023/07/29 10:25:37;;;;;;;5.38;2.30;;;21.10;99.90;;;;;;5090826;28;20206;-69
2023/07/29 10:28:07;;;;;;;2.00;1.80;;;20.90;99.90;;;;;;5081500;28;20231;-69
2023/07/29 10:30:35;;;;;;;3.22;1.80;;;20.90;99.90;;;;;;5068956;28;20239;-69
2023/07/29 10:33:05;;;;;;;1.85;1.75;;;21.00;99.90;;;;;;5093611;28;20200;-69
2023/07/29 10:35:33;;;;;;;2.75;1.70;;;21.20;99.90;;;;;;5083688;28;20215;-69
2023/07/29 10:38:00;;;;;;;3.85;1.95;;;21.10;99.90;;;;;;5091266;28;20281;-69
2023/07/29 10:40:43;;;;;;;6.03;1.90;;;21.00;99.90;;;;;;5091262;28;20218;-69
2023/07/29 10:43:12;;;;;;;1.75;1.63;;;21.00;99.90;;;;;;5085731;28;20210;-69
2023/07/29 10:45:41;;;;;;;1.98;1.75;;;20.90;99.90;;;;;;5069794;28;20684;-69
2023/07/29 10:48:11;;;;;;;2.13;1.80;;;20.60;99.90;;;;;;5092392;28;20203;-69
2023/07/29 10:50:39;;;;;;;2.20;1.60;;;20.60;99.90;;;;;;5083956;28;20245;-69
2023/07/29 10:53:06;;;;;;;4.57;1.90;;;20.50;99.90;;;;;;5091977;28;20215;-69
2023/07/29 10:55:34;;;;;;;2.40;1.63;;;20.60;99.90;;;;;;5090864;28;20191;-69
2023/07/29 10:58:17;;;;;;;6.10;1.70;;;20.60;99.90;;;;;;5093917;28;20944;-69
2023/07/29 11:00:46;;;;;;;2.30;2.10;;;20.60;99.90;;;;;;5084213;28;20207;-69
2023/07/29 11:03:15;;;;;;;1.77;1.67;;;20.70;99.90;;;;;;5075059;28;20230;-70
2023/07/29 11:05:52;;;;;;;3.47;2.10;;;20.90;99.90;;;;;;5080880;28;20228;-69
2023/07/29 11:08:21;;;;;;;3.20;1.90;;;20.90;99.90;;;;;;5093552;28;20546;-69
2023/07/29 11:11:03;;;;;;;4.05;1.80;;;21.00;99.90;;;;;;5089510;28;20383;-69
2023/07/29 11:13:30;;;;;;;2.83;2.08;;;21.10;99.90;;;;;;5086487;28;20196;-69
2023/07/29 11:16:01;;;;;;;1.85;1.65;;;21.00;99.90;;;;;;5082834;28;20200;-69
2023/07/29 11:18:29;;;;;;;2.75;1.92;;;21.00;99.90;;;;;;5072958;28;20203;-69
2023/07/29 11:20:58;;;;;;;2.47;1.92;;;20.80;99.90;;;;;;5092770;28;20238;-69
2023/07/29 11:23:31;;;;;;;2.88;1.75;;;20.80;99.90;;;;;;5088883;28;20192;-69
2023/07/29 11:25:58;;;;;;;3.70;2.22;;;20.80;99.90;;;;;;5081082;28;20214;-69
2023/07/29 11:28:25;;;;;;;3.08;2.08;;;20.90;99.90;;;;;;5091146;28;20726;-69
2023/07/29 11:30:52;;;;;;;2.40;1.90;;;20.90;99.90;;;;;;5092250;28;20231;-69
2023/07/29 11:33:21;;;;;;;1.65;1.55;;;21.00;99.90;;;;;;5071571;28;20223;-69
2023/07/29 11:35:48;;;;;;;3.45;2.15;;;20.90;99.90;;;;;;5095967;27;20213;-69
2023/07/29 11:38:16;;;;;;;2.38;1.92;;;21.00;99.90;;;;;;5085671;27;20225;-69
2023/07/29 11:40:43;;;;;;;2.67;1.90;;;20.90;99.90;;;;;;5097497;28;20590;-69
2023/07/29 11:43:10;;;;;;;6.40;2.22;;;21.20;99.90;;;;;;5090392;28;20238;-69
2023/07/29 11:45:37;;;;;;;2.30;2.10;;;20.80;99.90;;;;;;5093979;28;20203;-69
2023/07/29 11:48:04;;;;;;;2.78;1.67;;;20.90;99.90;;;;;;5074315;27;20215;-70
2023/07/29 11:50:32;;;;;;;3.35;1.95;;;20.90;99.90;;;;;;5095016;28;20223;-69
2023/07/29 11:52:59;;;;;;;2.20;1.52;;;;;;;;;;5091688;28;20229;-68
2023/07/29 11:55:26;;;;;;;2.13;1.92;;;21.00;99.90;;;;;;5094652;28;20198;-69
2023/07/29 11:57:53;;;;;;;2.35;1.70;;;20.90;99.90;;;;;;5095881;28;20286;-69
2023/07/29 12:00:22;;;;;;;3.63;2.15;;;21.00;99.90;;;;;;5083230;27;20625;-69
2023/07/29 12:02:50;;;;;;;2.80;2.10;;;21.00;99.90;;;;;;5076170;28;20204;-69
2023/07/29 12:05:18;;;;;;;2.80;1.90;;;21.00;99.90;;;;;;5091255;28;20198;-68
2023/07/29 12:07:48;;;;;;;2.25;2.05;;;21.10;99.90;;;;;;5089457;28;20326;-69
2023/07/29 12:10:15;;;;;;;4.47;1.90;;;21.10;99.90;;;;;;5095382;28;20230;-69
2023/07/29 12:12:47;;;;;;;4.72;2.08;;;21.10;99.90;;;;;;5092626;28;20203;-68
2023/07/29 12:15:14;;;;;;;5.38;2.45;;;21.10;99.90;;;;;;5096288;28;20273;-69
2023/07/29 12:17:42;;;;;;;6.18;2.00;;;21.20;99.90;;;;;;5067709;28;20671;-69
2023/07/29 12:20:11;;;;;;;3.70;1.80;;;21.10;99.90;;;;;;5092848;28;20209;-68
2023/07/29 12:22:38;;;;;;;3.95;2.05;;;21.10;99.90;;;;;;5090261;28;20278;-69
2023/07/29 12:25:07;;;;;;;6.15;2.15;;;21.20;99.90;;;;;;5093841;28;20191;-68
2023/07/29 12:27:34;;;;;;;3.42;1.77;;;21.30;99.90;;;;;;5090814;28;20272;-69
2023/07/29 12:30:03;;;;;;;3.22;2.03;;;21.30;99.90;;;;;;5096638;27;20231;-68
2023/07/29 12:32:30;;;;;;;4.70;2.00;;;21.50;99.90;;;;;;5089542;28;20207;-69
2023/07/29 12:34:58;;;;;;;2.47;1.90;;;21.50;99.90;;;;;;5063853;27;20208;-69
2023/07/29 12:37:33;;;;;;;3.38;1.98;;;21.50;99.90;;;;;;5088363;28;20206;-68
2023/07/29 12:40:01;;;;;;;2.15;1.92;;;21.50;99.90;;;;;;5091363;28;20210;-69
2023/07/29 12:42:29;;;;;;;3.42;1.92;;;21.60;99.90;;;;;;5090350;28;20192;-68
2023/07/29 12:44:56;;;;;;;2.95;1.95;;;21.70;99.90;;;;;;5094780;27;20203;-68